Time;durP1;ratioP1;P1;durP2;ratioP2;P2;SDS_P1;SDS_P2;PMS_P1;PMS_P2;Temp;Humidity;BMP_temperature;BMP_pressure;BME280_temperature;BME280_humidity;BME280_pressure;Samples;Min_cycle;Max_cycle;Signal;HPM_P1;HPM_P2
2022/12/28 00:00:07;;;;;;;10.32;5.50;;;;;;;8.03;67.20;97850.13;4972194;28;20063;-77
2022/12/28 00:02:32;;;;;;;10.38;5.60;;;;;;;8.11;67.01;97837.91;4937023;28;20026;-78
2022/12/28 00:04:57;;;;;;;11.10;5.30;;;;;;;8.03;67.22;97844.94;4940091;28;20684;-77
2022/12/28 00:07:23;;;;;;;10.15;5.20;;;;;;;8.06;67.65;97841.91;4956311;28;20849;-77
2022/12/28 00:09:48;;;;;;;11.05;6.00;;;;;;;8.13;67.02;97834.09;4925027;28;20044;-77
2022/12/28 00:12:13;;;;;;;9.80;5.60;;;;;;;8.27;67.05;97829.59;4944307;28;20044;-78
2022/12/28 00:14:39;;;;;;;11.77;6.00;;;;;;;8.17;67.14;97826.69;4954412;28;20040;-77
2022/12/28 00:17:04;;;;;;;13.23;6.00;;;;;;;8.25;66.44;97826.41;4940595;28;20029;-77
2022/12/28 00:19:29;;;;;;;13.45;7.13;;;;;;;8.37;66.20;97821.31;4955200;28;20077;-76
2022/12/28 00:21:55;;;;;;;10.68;5.82;;;;;;;8.38;66.78;97813.34;4938712;28;20036;-77
2022/12/28 00:24:22;;;;;;;9.38;5.78;;;;;;;8.29;66.78;97804.22;4939897;28;20040;-77
2022/12/28 00:26:48;;;;;;;11.55;6.47;;;;;;;8.27;67.12;97795.88;4952377;28;20094;-76
2022/12/28 00:29:14;;;;;;;11.07;6.43;;;;;;;8.12;67.87;97792.81;4923594;28;20717;-78
2022/12/28 00:31:39;;;;;;;13.65;7.55;;;;;;;8.29;66.95;97780.09;4956479;28;20067;-78
2022/12/28 00:34:05;;;;;;;13.10;6.18;;;;;;;8.32;67.48;97774.47;4922898;28;20090;-77
2022/12/28 00:36:31;;;;;;;11.77;6.25;;;;;;;8.42;66.76;97770.41;4945199;28;20840;-78
2022/12/28 00:38:56;;;;;;;12.48;5.95;;;;;;;8.48;66.45;97765.34;4923404;28;20495;-77
2022/12/28 00:41:22;;;;;;;11.23;5.65;;;;;;;8.49;66.70;97762.53;4924151;28;20033;-77
2022/12/28 00:43:47;;;;;;;11.82;6.50;;;;;;;8.50;66.61;97760.72;4941841;28;20059;-77
2022/12/28 00:46:13;;;;;;;11.75;5.75;;;;;;;8.50;66.81;97756.34;4940996;28;20024;-77
2022/12/28 00:48:38;;;;;;;10.52;5.53;;;;;;;8.57;66.50;97753.69;4974142;28;20036;-78
2022/12/28 00:51:10;;;;;;;10.20;5.22;;;;;;;8.49;67.47;97751.38;4937843;28;20056;-76
2022/12/28 00:53:35;;;;;;;10.60;6.55;;;;;;;8.49;67.39;97743.59;4951712;28;20036;-77
2022/12/28 00:56:12;;;;;;;11.82;6.20;;;;;;;8.56;67.26;97737.31;4957465;28;20021;-77
2022/12/28 00:58:38;;;;;;;12.60;6.75;;;;;;;8.27;68.20;97727.63;4938297;28;20739;-76
2022/12/28 01:01:05;;;;;;;11.43;6.45;;;;;;;8.67;67.23;97733.22;4924756;28;20074;-78
2022/12/28 01:03:30;;;;;;;12.27;6.10;;;;;;;8.72;66.82;97729.94;4974881;28;20040;-78
2022/12/28 01:05:56;;;;;;;10.45;5.60;;;;;;;8.62;67.35;97720.09;4952632;28;20037;-77
2022/12/28 01:08:22;;;;;;;9.25;5.82;;;;;;;8.56;67.27;97721.72;4923143;28;20029;-77
2022/12/28 01:10:47;;;;;;;9.88;5.20;;;;;;;8.74;67.73;97718.34;4974907;28;20068;-78
2022/12/28 01:13:12;;;;;;;10.35;5.13;;;;;;;8.88;66.74;97710.38;4914471;28;20057;-77
2022/12/28 01:15:38;;;;;;;9.23;5.63;;;;;;;8.95;66.45;97703.31;4938695;28;20094;-77
2022/12/28 01:18:04;;;;;;;9.73;5.13;;;;;;;8.81;66.94;97706.06;4957025;28;20029;-77
2022/12/28 01:20:29;;;;;;;11.82;5.45;;;;;;;8.83;66.69;97700.66;4940018;28;20748;-77
2022/12/28 01:22:54;;;;;;;9.63;5.25;;;;;;;8.79;67.22;97692.50;4957954;28;20031;-78
2022/12/28 01:25:20;;;;;;;8.88;5.15;;;;;;;8.95;66.72;97695.50;4924941;28;20067;-76
2022/12/28 01:27:45;;;;;;;8.45;5.05;;;;;;;8.77;67.67;97691.13;4950561;28;20037;-76
2022/12/28 01:30:13;;;;;;;8.35;5.07;;;;;;;8.29;69.28;97690.06;4953504;28;20087;-76
2022/12/28 01:32:38;;;;;;;8.02;5.63;;;;;;;8.76;67.46;97687.75;4925081;28;20037;-78
2022/12/28 01:35:04;;;;;;;10.25;4.55;;;;;;;8.84;67.80;97685.84;4935356;28;20809;-77
2022/12/28 01:37:29;;;;;;;7.15;4.43;;;;;;;8.92;66.61;97686.34;4940882;28;20119;-78
2022/12/28 01:39:55;;;;;;;7.88;4.40;;;;;;;9.04;66.66;97678.59;4921406;28;20320;-77
2022/12/28 01:42:20;;;;;;;7.75;4.20;;;;;;;9.10;66.16;97669.91;4967025;28;20048;-77
2022/12/28 01:44:51;;;;;;;9.60;5.35;;;;;;;8.83;67.61;97669.50;4938902;28;20525;-77
2022/12/28 01:47:23;;;;;;;7.80;4.10;;;;;;;8.97;66.86;97660.50;4930711;28;20021;-77
2022/12/28 01:49:50;;;;;;;7.80;4.05;;;;;;;9.13;66.19;97672.09;4935238;28;20059;-78
2022/12/28 01:52:27;;;;;;;6.35;3.88;;;;;;;9.25;65.56;97681.69;4940233;28;20828;-77
2022/12/28 01:55:10;;;;;;;6.93;3.78;;;;;;;9.02;66.47;97679.84;4948237;28;20025;-76
2022/12/28 01:57:46;;;;;;;5.60;3.38;;;;;;;9.21;66.26;97664.97;4971054;28;20143;-78
2022/12/28 02:00:14;;;;;;;6.05;3.63;;;;;;;9.16;65.59;97673.44;4938040;28;20028;-79
2022/12/28 02:02:43;;;;;;;4.78;2.97;;;;;;;9.23;65.92;97679.31;4939380;28;20511;-79
2022/12/28 02:05:08;;;;;;;5.50;3.33;;;;;;;9.09;66.06;97668.31;4956197;28;20044;-77
2022/12/28 02:08:02;;;;;;;6.85;4.10;;;;;;;9.25;66.06;97671.28;4939697;28;20797;-77
2022/12/28 02:10:27;;;;;;;5.25;3.08;;;;;;;9.06;66.27;97668.75;4950822;28;20065;-78
2022/12/28 02:12:53;;;;;;;7.00;4.22;;;;;;;9.21;66.26;97672.78;4975446;28;20440;-77
2022/12/28 02:15:19;;;;;;;4.80;3.30;;;;;;;9.28;65.74;97657.88;4956006;28;20032;-77
2022/12/28 02:17:44;;;;;;;4.75;3.33;;;;;;;9.27;65.17;97653.66;4955874;28;20076;-78
2022/12/28 02:20:09;;;;;;;6.63;3.33;;;;;;;9.24;65.93;97641.16;4955230;28;20032;-78
2022/12/28 02:22:41;;;;;;;5.05;2.70;;;;;;;9.45;65.50;97645.00;4957075;28;20017;-79
2022/12/28 02:25:06;;;;;;;4.68;3.17;;;;;;;9.33;65.61;97637.19;4954142;28;20084;-78
2022/12/28 02:27:50;;;;;;;6.43;3.40;;;;;;;9.20;66.05;97645.97;4955563;28;20032;-78
2022/12/28 02:30:16;;;;;;;6.50;2.92;;;;;;;9.34;65.76;97641.38;4973993;28;20036;-78
2022/12/28 02:32:58;;;;;;;4.80;2.97;;;;;;;9.35;66.13;97637.75;4921582;28;20547;-78
2022/12/28 02:35:38;;;;;;;6.63;2.97;;;;;;;9.34;65.97;97631.78;4946548;28;20108;-77
2022/12/28 02:38:15;;;;;;;6.22;3.15;;;;;;;9.42;65.63;97616.88;4970044;28;20076;-78
2022/12/28 02:40:44;;;;;;;6.63;2.78;;;;;;;9.03;66.91;97617.28;4920391;28;20034;-76
2022/12/28 02:43:11;;;;;;;6.00;2.63;;;;;;;9.22;66.11;97607.59;4955044;28;20021;-78
2022/12/28 02:51:54;;;;;;;4.97;2.65;;;;;;;9.42;65.51;97596.06;4941879;28;20091;-77
2022/12/28 02:58:07;;;;;;;3.95;2.05;;;;;;;9.49;65.70;97600.16;4965080;28;20021;-79
2022/12/28 03:00:43;;;;;;;4.47;2.20;;;;;;;9.47;65.41;97589.16;4947082;28;20057;-77
2022/12/28 03:03:21;;;;;;;5.95;2.30;;;;;;;9.53;65.07;97592.69;4956159;28;20113;-77
2022/12/28 03:09:02;;;;;;;4.00;2.50;;;;;;;9.35;66.37;97603.97;4956380;28;20099;-77
2022/12/28 03:11:43;;;;;;;5.18;2.25;;;;;;;9.28;66.29;97593.69;4951509;28;20025;-77
2022/12/28 03:14:13;;;;;;;3.80;2.22;;;;;;;9.39;65.61;97599.94;4936566;28;20025;-77
2022/12/28 03:33:22;;;;;;;2.60;1.80;;;;;;;9.12;66.25;97556.19;4942544;28;20032;-76
2022/12/28 03:36:25;;;;;;;4.30;1.80;;;;;;;9.49;64.85;97548.16;4936006;28;20029;-76
2022/12/28 03:39:01;;;;;;;5.05;2.08;;;;;;;9.44;64.71;97555.84;4972761;28;20258;-76
2022/12/28 03:41:37;;;;;;;2.50;1.70;;;;;;;9.47;64.44;97544.97;4923598;28;20037;-77
2022/12/28 03:44:08;;;;;;;2.72;1.52;;;;;;;9.17;65.67;97540.72;4922124;28;20028;-76
2022/12/28 03:47:02;;;;;;;4.22;2.15;;;;;;;9.52;64.80;97532.09;4916545;28;20675;-76
2022/12/28 03:49:28;;;;;;;4.68;1.80;;;;;;;9.31;64.60;97541.28;4920596;28;20029;-77
2022/12/28 03:51:54;;;;;;;4.72;2.00;;;;;;;9.17;65.62;97535.50;4935108;28;20036;-77
2022/12/28 03:54:19;;;;;;;3.28;1.70;;;;;;;9.23;65.21;97533.81;4939348;28;20029;-77
2022/12/28 03:56:50;;;;;;;5.28;1.58;;;;;;;9.09;66.00;97538.44;4938849;28;20025;-77
2022/12/28 03:59:16;;;;;;;2.88;1.67;;;;;;;9.28;64.85;97541.72;4953139;28;20053;-78
2022/12/28 04:01:41;;;;;;;3.10;1.33;;;;;;;8.97;66.36;97528.03;4935540;28;20029;-75
2022/12/28 04:04:07;;;;;;;3.42;2.00;;;;;;;9.15;65.63;97532.34;4952854;28;20841;-77
2022/12/28 04:06:32;;;;;;;4.50;1.40;;;;;;;9.18;64.86;97536.28;4928870;28;20072;-77
2022/12/28 04:08:58;;;;;;;3.22;1.60;;;;;;;9.12;65.51;97532.81;4938596;28;20025;-75
2022/12/28 04:11:24;;;;;;;6.05;2.45;;;;;;;9.41;64.82;97538.13;4952552;28;20658;-78
2022/12/28 04:13:49;;;;;;;3.22;1.40;;;;;;;9.49;64.59;97536.97;4934019;28;20068;-77
2022/12/28 04:16:14;;;;;;;3.97;1.63;;;;;;;9.25;65.13;97536.19;4937375;28;20171;-77
2022/12/28 04:18:40;;;;;;;2.85;1.52;;;;;;;9.32;64.71;97534.25;4918716;28;20060;-76
2022/12/28 04:21:07;;;;;;;3.33;1.80;;;;;;;9.54;64.34;97531.88;4946019;28;20033;-78
2022/12/28 04:23:32;;;;;;;3.65;1.35;;;;;;;9.50;64.00;97528.16;4938254;28;20087;-77
2022/12/28 04:26:00;;;;;;;3.03;1.52;;;;;;;9.57;64.19;97534.03;4955099;28;20680;-77
2022/12/28 04:28:27;;;;;;;3.30;1.85;;;;;;;9.46;64.52;97529.63;4920937;28;20029;-76
2022/12/28 04:30:52;;;;;;;3.70;1.70;;;;;;;9.37;64.49;97531.78;4927746;28;20687;-77
2022/12/28 04:33:18;;;;;;;2.83;1.40;;;;;;;9.47;64.03;97510.41;4947057;28;20025;-77
2022/12/28 04:35:43;;;;;;;2.50;1.50;;;;;;;9.48;64.24;97520.59;4943270;28;20079;-78
2022/12/28 04:38:09;;;;;;;3.00;1.75;;;;;;;9.28;64.44;97514.94;4925005;28;20622;-78
2022/12/28 04:40:34;;;;;;;2.58;1.20;;;;;;;9.53;63.64;97501.72;4946678;28;20033;-77
2022/12/28 04:42:59;;;;;;;2.72;1.33;;;;;;;9.32;64.79;97518.66;4954258;28;20036;-76
2022/12/28 04:45:25;;;;;;;2.25;1.67;;;;;;;9.37;64.67;97510.97;4958749;28;20025;-77
2022/12/28 04:47:50;;;;;;;2.60;1.50;;;;;;;9.53;64.26;97505.09;4955279;28;20029;-77
2022/12/28 04:50:16;;;;;;;3.95;1.40;;;;;;;9.56;64.28;97511.63;4940344;28;20228;-77
2022/12/28 04:52:41;;;;;;;2.85;1.75;;;;;;;9.47;64.57;97503.41;4957899;28;20060;-77
2022/12/28 04:55:07;;;;;;;2.10;1.25;;;;;;;9.40;64.59;97514.94;4925949;28;20074;-76
2022/12/28 04:57:32;;;;;;;3.47;1.52;;;;;;;9.43;64.62;97509.31;4963326;28;20033;-77
2022/12/28 04:59:58;;;;;;;3.13;1.38;;;;;;;9.35;64.91;97500.03;4950022;28;20033;-77
2022/12/28 05:02:23;;;;;;;2.50;1.33;;;;;;;9.44;64.53;97497.88;4922826;28;20029;-77
2022/12/28 05:04:48;;;;;;;2.13;1.50;;;;;;;9.42;64.72;97494.72;4940391;28;20530;-77
2022/12/28 05:07:14;;;;;;;3.03;1.25;;;;;;;9.42;64.56;97492.91;4954881;28;20032;-76
2022/12/28 05:09:39;;;;;;;2.58;1.48;;;;;;;9.57;63.89;97490.59;4954520;28;20032;-78
2022/12/28 05:12:04;;;;;;;3.97;1.40;;;;;;;8.99;65.97;97487.06;4925796;28;20032;-76
2022/12/28 05:14:30;;;;;;;2.50;1.40;;;;;;;9.44;64.67;97488.28;4939113;28;20037;-77
2022/12/28 05:16:55;;;;;;;3.05;1.30;;;;;;;9.29;65.72;97480.16;4940815;28;20040;-78
2022/12/28 05:19:20;;;;;;;4.68;1.20;;;;;;;9.53;64.54;97481.69;4925027;28;20036;-76
2022/12/28 05:21:46;;;;;;;3.25;1.33;;;;;;;9.37;64.68;97477.19;4971147;28;20025;-76
2022/12/28 05:24:11;;;;;;;3.40;1.50;;;;;;;9.73;63.61;97475.31;4934973;28;20044;-78
2022/12/28 05:26:36;;;;;;;5.15;1.70;;;;;;;9.35;64.87;97458.44;4932039;28;20551;-76
2022/12/28 05:29:03;;;;;;;5.47;2.78;;;;;;;9.49;64.65;97457.19;4939798;28;20087;-76
2022/12/28 05:31:28;;;;;;;2.72;1.58;;;;;;;9.40;64.90;97465.56;4954092;28;20032;-77
2022/12/28 05:33:54;;;;;;;2.38;1.50;;;;;;;9.61;64.33;97457.13;4937217;28;20024;-77
2022/12/28 05:36:22;;;;;;;3.97;1.45;;;;;;;9.66;64.58;97461.66;4957468;28;20725;-79
2022/12/28 05:38:48;;;;;;;5.82;1.45;;;;;;;9.43;64.87;97465.13;4935271;28;20460;-77
2022/12/28 05:41:16;;;;;;;5.32;2.25;;;;;;;9.39;64.97;97467.38;4954004;28;20091;-77
2022/12/28 05:43:42;;;;;;;3.45;1.38;;;;;;;9.39;65.16;97464.78;4937479;28;20071;-76
2022/12/28 05:46:17;;;;;;;3.22;1.50;;;;;;;9.53;64.78;97471.31;4950791;28;20326;-77
2022/12/28 05:48:43;;;;;;;1.65;1.20;;;;;;;9.33;65.30;97476.88;4940330;28;20094;-76
2022/12/28 05:51:12;;;;;;;2.88;1.50;;;;;;;9.51;64.55;97468.16;4957084;28;20687;-78
2022/12/28 05:53:38;;;;;;;2.83;1.23;;;;;;;9.46;64.50;97465.44;4921913;28;20740;-77
2022/12/28 05:56:07;;;;;;;3.13;1.17;;;;;;;9.51;64.62;97462.94;4929116;28;20102;-77
2022/12/28 05:58:32;;;;;;;2.63;1.05;;;;;;;9.63;64.45;97459.50;4957675;28;20020;-76
2022/12/28 06:01:16;;;;;;;4.28;1.77;;;;;;;9.71;63.70;97457.34;4917770;28;20037;-76
2022/12/28 06:03:42;;;;;;;2.60;1.48;;;;;;;9.55;64.09;97448.47;4927429;28;20830;-78
2022/12/28 06:06:13;;;;;;;2.00;1.27;;;;;;;9.72;63.84;97463.34;4929748;28;20087;-77
2022/12/28 06:08:39;;;;;;;3.10;1.50;;;;;;;9.52;63.91;97450.72;4950064;28;20841;-76
2022/12/28 06:11:10;;;;;;;2.58;1.45;;;;;;;9.77;63.70;97453.03;4938266;28;20024;-77
2022/12/28 06:13:36;;;;;;;4.65;1.60;;;;;;;9.27;64.74;97445.81;4920578;28;20017;-75
2022/12/28 06:16:06;;;;;;;2.20;1.75;;;;;;;9.47;64.70;97448.81;4927390;28;20454;-77
2022/12/28 06:18:32;;;;;;;2.42;1.38;;;;;;;9.43;64.35;97457.31;4932515;28;20711;-77
2022/12/28 06:21:13;;;;;;;2.90;1.58;;;;;;;9.53;64.51;97460.91;4923953;28;20021;-77
2022/12/28 06:23:39;;;;;;;2.80;1.38;;;;;;;9.26;65.32;97455.41;4938512;28;20154;-77
2022/12/28 06:26:06;;;;;;;2.80;1.73;;;;;;;9.28;65.00;97452.59;4954898;28;20487;-75
2022/12/28 06:28:32;;;;;;;2.58;1.42;;;;;;;9.44;63.82;97457.09;4944739;28;20695;-75
2022/12/28 06:31:13;;;;;;;3.15;1.20;;;;;;;9.63;63.61;97452.53;4938329;28;20025;-75
2022/12/28 06:33:39;;;;;;;3.33;1.30;;;;;;;9.41;64.24;97451.53;4968069;28;20798;-76
2022/12/28 06:36:11;;;;;;;4.28;1.90;;;;;;;9.46;64.78;97449.03;4913817;28;20059;-77
2022/12/28 06:38:36;;;;;;;2.10;1.30;;;;;;;9.26;64.74;97441.66;4935410;28;20036;-76
2022/12/28 06:41:02;;;;;;;3.60;1.50;;;;;;;9.41;64.12;97441.97;4951316;28;20645;-77
2022/12/28 06:43:32;;;;;;;2.95;1.70;;;;;;;9.42;64.67;97432.34;4933458;28;20098;-76
2022/12/28 06:45:57;;;;;;;2.90;1.67;;;;;;;9.39;64.20;97436.19;4955318;28;20037;-77
2022/12/28 06:48:23;;;;;;;3.03;1.42;;;;;;;9.47;64.20;97428.03;4939292;28;20041;-78
2022/12/28 06:50:55;;;;;;;3.35;1.55;;;;;;;9.71;63.56;97425.34;4936104;28;20032;-77
2022/12/28 06:53:21;;;;;;;4.15;1.40;;;;;;;9.19;65.10;97424.38;4952915;28;20087;-77
2022/12/28 06:55:58;;;;;;;2.90;1.50;;;;;;;9.48;64.74;97432.22;4935971;28;20044;-76
2022/12/28 06:58:27;;;;;;;6.68;1.60;;;;;;;9.27;65.54;97432.81;4937522;28;20025;-76
2022/12/28 07:00:53;;;;;;;2.60;1.30;;;;;;;9.24;65.42;97425.50;4951593;28;20745;-76
2022/12/28 07:03:20;;;;;;;5.22;1.40;;;;;;;9.27;65.17;97419.81;4939377;28;20024;-77
2022/12/28 07:05:45;;;;;;;2.38;1.27;;;;;;;9.42;64.46;97425.31;4936331;28;20086;-78
2022/12/28 07:08:10;;;;;;;4.65;1.67;;;;;;;9.41;64.34;97428.97;4936581;28;20037;-77
2022/12/28 07:10:36;;;;;;;3.58;1.42;;;;;;;9.52;64.17;97415.13;4925694;28;20017;-77
2022/12/28 07:13:02;;;;;;;1.75;1.35;;;;;;;9.73;63.70;97418.09;4948293;28;20059;-77
2022/12/28 07:15:28;;;;;;;4.00;1.60;;;;;;;9.51;63.95;97416.16;4938863;28;20056;-77
2022/12/28 07:17:53;;;;;;;2.05;1.17;;;;;;;9.33;64.86;97426.72;4922318;28;20053;-76
2022/12/28 07:20:19;;;;;;;2.38;1.33;;;;;;;9.63;63.50;97415.31;4954260;28;20041;-77
2022/12/28 07:22:44;;;;;;;1.15;0.95;;;;;;;9.59;63.71;97414.22;4955720;28;20040;-76
2022/12/28 07:25:10;;;;;;;2.00;1.20;;;;;;;9.63;63.48;97415.31;4936202;28;20036;-77
2022/12/28 07:27:35;;;;;;;3.20;1.30;;;;;;;9.66;63.89;97414.84;4954904;28;20699;-77
2022/12/28 07:30:01;;;;;;;3.35;2.28;;;;;;;9.65;63.73;97421.09;4923078;28;20886;-76
2022/12/28 07:32:26;;;;;;;2.58;1.70;;;;;;;9.63;63.65;97410.94;4952399;28;20056;-77
2022/12/28 07:34:52;;;;;;;5.57;1.63;;;;;;;9.50;63.87;97411.97;4938990;28;20032;-76
2022/12/28 07:37:17;;;;;;;2.75;1.48;;;;;;;9.62;63.73;97411.94;4938159;28;20025;-78
2022/12/28 07:39:42;;;;;;;6.47;2.10;;;;;;;9.74;63.34;97410.06;4954288;28;20690;-77
2022/12/28 07:42:10;;;;;;;3.03;1.50;;;;;;;9.08;65.10;97422.59;4945405;28;20033;-77
2022/12/28 07:44:36;;;;;;;4.30;1.50;;;;;;;9.24;65.59;97417.72;4944143;28;20041;-76
2022/12/28 07:47:01;;;;;;;3.22;1.48;;;;;;;9.43;64.21;97397.53;4944096;28;20614;-75
2022/12/28 07:49:26;;;;;;;2.80;1.52;;;;;;;9.74;63.54;97410.06;4919261;28;20033;-76
2022/12/28 07:51:52;;;;;;;1.88;1.52;;;;;;;9.66;63.78;97414.84;4932723;28;20103;-76
2022/12/28 07:54:17;;;;;;;3.38;1.50;;;;;;;9.78;63.71;97420.00;4927442;28;20076;-77
2022/12/28 07:56:43;;;;;;;2.75;1.58;;;;;;;9.61;64.16;97420.75;4937074;28;20021;-77
2022/12/28 07:59:12;;;;;;;3.08;1.42;;;;;;;9.79;63.84;97419.78;4954751;28;20431;-77
2022/12/28 08:01:38;;;;;;;1.80;1.27;;;;;;;9.46;65.06;97410.06;4936175;28;20087;-78
2022/12/28 08:04:10;;;;;;;3.28;1.98;;;;;;;9.82;64.38;97416.72;4939588;28;20032;-78
2022/12/28 08:06:37;;;;;;;4.00;1.38;;;;;;;9.78;64.17;97413.00;4916511;28;20035;-78
2022/12/28 08:09:04;;;;;;;3.58;1.50;;;;;;;9.73;64.23;97412.91;4958229;28;20108;-77
2022/12/28 08:11:32;;;;;;;3.20;1.27;;;;;;;10.03;63.24;97412.66;4938926;28;20812;-77
2022/12/28 08:13:58;;;;;;;3.13;1.50;;;;;;;10.21;62.63;97414.28;4956745;28;20683;-76
2022/12/28 08:16:25;;;;;;;2.20;1.05;;;;;;;10.03;62.92;97411.88;4938608;28;20020;-76
2022/12/28 08:18:51;;;;;;;2.90;1.45;;;;;;;9.83;63.92;97409.69;4940239;28;20693;-76
2022/12/28 08:21:20;;;;;;;3.67;1.75;;;;;;;9.84;63.70;97419.88;4958274;28;20092;-77
2022/12/28 08:23:45;;;;;;;1.83;1.10;;;;;;;9.84;63.64;97419.88;4941521;28;20111;-77
2022/12/28 08:26:22;;;;;;;3.10;1.02;;;;;;;9.93;62.80;97407.28;4956945;28;20120;-77
2022/12/28 08:28:51;;;;;;;3.53;1.00;;;;;;;9.52;63.94;97401.34;4911934;28;20025;-77
2022/12/28 08:31:24;;;;;;;3.88;1.25;;;;;;;9.78;63.76;97410.41;4942595;28;20075;-78
2022/12/28 08:33:50;;;;;;;3.25;1.40;;;;;;;9.96;62.66;97406.81;4953966;28;20024;-77
2022/12/28 08:36:15;;;;;;;3.72;1.10;;;;;;;9.68;62.85;97405.81;4940348;28;20070;-76
2022/12/28 08:38:42;;;;;;;5.85;1.60;;;;;;;10.06;62.10;97408.81;4921134;28;20762;-77
2022/12/28 08:41:11;;;;;;;2.45;1.00;;;;;;;10.00;62.20;97409.75;4914890;28;20760;-76
2022/12/28 08:43:36;;;;;;;5.10;2.17;;;;;;;10.04;62.22;97398.63;4936893;28;20028;-76
2022/12/28 08:46:07;;;;;;;2.72;1.08;;;;;;;10.05;62.13;97396.81;4940698;28;20033;-78
2022/12/28 08:48:33;;;;;;;2.33;1.38;;;;;;;10.11;61.65;97393.28;4939630;28;20060;-76
2022/12/28 08:51:20;;;;;;;2.90;1.05;;;;;;;10.37;61.58;97391.13;4922380;28;20108;-77
2022/12/28 08:53:45;;;;;;;3.58;1.08;;;;;;;9.93;62.58;97391.69;4925091;28;20123;-77
2022/12/28 08:56:17;;;;;;;1.60;1.20;;;;;;;10.19;62.18;97390.28;4907790;28;20124;-76
2022/12/28 08:58:43;;;;;;;2.53;1.80;;;;;;;10.06;62.49;97388.00;4940453;28;20634;-76
2022/12/28 09:01:10;;;;;;;3.42;1.25;;;;;;;10.30;61.83;97392.03;4923800;28;20064;-77
2022/12/28 09:03:37;;;;;;;4.20;1.88;;;;;;;10.27;62.11;97387.28;4939505;28;20025;-77
2022/12/28 09:06:08;;;;;;;4.22;1.85;;;;;;;10.15;62.44;97383.97;4933249;28;20818;-77
2022/12/28 09:08:34;;;;;;;3.90;1.55;;;;;;;9.77;63.71;97384.63;4947949;28;20025;-77
2022/12/28 09:11:01;;;;;;;3.25;1.33;;;;;;;10.25;62.23;97384.13;4940686;28;20490;-75
2022/12/28 09:13:27;;;;;;;2.13;1.13;;;;;;;10.23;62.42;97377.56;4938324;28;20044;-77
2022/12/28 09:16:01;;;;;;;3.42;1.45;;;;;;;10.29;62.20;97374.81;4936449;28;20025;-77
2022/12/28 09:18:26;;;;;;;3.03;1.50;;;;;;;10.05;63.11;97378.59;4938597;28;20776;-77
2022/12/28 09:20:52;;;;;;;3.08;1.20;;;;;;;10.34;62.11;97375.97;4939974;28;20033;-76
2022/12/28 09:23:17;;;;;;;1.75;1.30;;;;;;;10.35;61.73;97367.94;4924028;28;20115;-78
2022/12/28 09:25:43;;;;;;;3.38;1.50;;;;;;;10.50;61.74;97375.16;4937889;28;20064;-77
2022/12/28 09:28:08;;;;;;;2.20;1.25;;;;;;;10.45;61.28;97378.50;4934478;28;20032;-76
2022/12/28 09:30:33;;;;;;;3.28;1.38;;;;;;;10.23;62.03;97375.78;4954782;28;20728;-75
2022/12/28 09:35:43;;;;;;;2.38;1.20;;;;;;;10.37;61.53;97380.72;4947483;28;20037;-77
2022/12/28 09:38:08;;;;;;;2.35;1.10;;;;;;;10.28;60.97;97372.44;4936178;28;20025;-77
2022/12/28 09:40:35;;;;;;;1.75;0.93;;;;;;;10.51;60.31;97368.94;4940226;28;20041;-75
2022/12/28 09:43:00;;;;;;;1.50;0.82;;;;;;;10.64;60.13;97371.22;4936043;28;20037;-77
2022/12/28 09:45:26;;;;;;;2.25;1.27;;;;;;;10.41;61.17;97366.97;4955654;28;20596;-77
2022/12/28 09:47:57;;;;;;;2.72;1.45;;;;;;;10.51;60.92;97373.34;4939341;28;20033;-77
2022/12/28 09:50:28;;;;;;;2.83;1.45;;;;;;;10.62;60.43;97372.47;4934131;28;20065;-77
2022/12/28 09:53:16;;;;;;;3.25;1.27;;;;;;;10.72;59.98;97380.41;4966069;28;20116;-77
2022/12/28 09:55:53;;;;;;;3.58;1.25;;;;;;;10.70;59.86;97373.88;4939475;28;20040;-77
2022/12/28 09:58:18;;;;;;;2.65;1.13;;;;;;;10.56;60.70;97374.22;4955000;28;20029;-75
2022/12/28 10:00:47;;;;;;;1.92;1.23;;;;;;;10.68;61.30;97371.50;4954299;28;20093;-77
2022/12/28 10:03:23;;;;;;;2.67;1.27;;;;;;;11.04;60.21;97370.16;4945298;28;20026;-77
2022/12/28 10:05:52;;;;;;;3.28;1.60;;;;;;;10.81;60.48;97365.16;4920699;28;20049;-76
2022/12/28 10:08:20;;;;;;;1.55;1.33;;;;;;;11.03;59.35;97358.13;4933166;28;20017;-77
2022/12/28 10:10:46;;;;;;;2.95;1.52;;;;;;;11.06;59.59;97352.44;4938869;28;20903;-78
2022/12/28 10:13:20;;;;;;;4.35;1.75;;;;;;;11.10;60.36;97357.19;4922931;28;20037;-77
2022/12/28 10:15:46;;;;;;;4.80;1.60;;;;;;;11.11;59.47;97348.34;4938174;28;20125;-77
2022/12/28 10:18:23;;;;;;;3.90;1.40;;;;;;;11.01;59.65;97347.19;4937986;28;20688;-77
2022/12/28 10:20:49;;;;;;;3.03;1.45;;;;;;;10.77;60.28;97348.44;4954640;28;20087;-75
2022/12/28 10:23:18;;;;;;;2.90;1.20;;;;;;;10.90;60.67;97342.88;4938350;28;20025;-76
2022/12/28 10:25:44;;;;;;;3.63;1.38;;;;;;;11.18;59.83;97346.34;4936265;28;20021;-77
2022/12/28 10:28:10;;;;;;;2.20;1.30;;;;;;;11.10;60.28;97333.72;4928307;28;20099;-77
2022/12/28 10:30:47;;;;;;;2.53;1.10;;;;;;;11.32;59.90;97333.72;4921038;28;20667;-77
2022/12/28 10:33:17;;;;;;;3.28;1.23;;;;;;;11.36;59.27;97330.38;4916625;28;20030;-76
2022/12/28 10:35:52;;;;;;;2.10;1.42;;;;;;;11.34;59.91;97319.38;4917623;28;20297;-76
2022/12/28 10:38:23;;;;;;;4.40;1.33;;;;;;;11.40;59.71;97326.25;4952358;28;20089;-77
2022/12/28 10:40:59;;;;;;;3.55;1.58;;;;;;;11.42;60.08;97312.97;4909692;28;21119;-76
2022/12/28 10:43:34;;;;;;;5.72;1.60;;;;;;;11.30;60.43;97323.53;4920356;28;20580;-77
2022/12/28 10:46:00;;;;;;;2.85;1.35;;;;;;;11.24;60.97;97307.06;4922117;28;20112;-77
2022/12/28 10:48:31;;;;;;;2.78;1.73;;;;;;;11.33;60.68;97307.41;4955157;28;20135;-76
2022/12/28 10:51:20;;;;;;;2.33;1.02;;;;;;;11.55;59.69;97309.16;4944489;28;20735;-75
2022/12/28 10:53:50;;;;;;;2.60;1.15;;;;;;;11.68;59.45;97302.75;4935138;28;20128;-76
2022/12/28 10:56:32;;;;;;;1.55;1.17;;;;;;;11.84;58.91;97294.03;4903445;28;20022;-78
2022/12/28 10:59:09;;;;;;;3.53;1.73;;;;;;;11.61;59.84;97295.13;4919274;28;20112;-77
2022/12/28 11:01:35;;;;;;;3.78;1.33;;;;;;;11.39;60.21;97297.81;4947427;28;20044;-77
2022/12/28 11:04:21;;;;;;;1.40;1.08;;;;;;;11.38;60.21;97294.41;4938950;28;20286;-77
2022/12/28 11:06:55;;;;;;;1.65;1.15;;;;;;;11.42;60.59;97292.09;4935935;28;20033;-77
2022/12/28 11:09:28;;;;;;;2.53;1.27;;;;;;;11.55;60.31;97288.28;4919238;28;20029;-77
2022/12/28 11:12:14;;;;;;;2.13;1.23;;;;;;;11.63;60.28;97272.22;4942673;28;20028;-77
2022/12/28 11:14:40;;;;;;;1.45;0.95;;;;;;;11.73;59.49;97272.28;4938360;28;20024;-76
2022/12/28 11:17:25;;;;;;;3.35;1.48;;;;;;;11.73;60.38;97274.13;4922105;28;20020;-77
2022/12/28 11:19:56;;;;;;;2.10;1.08;;;;;;;11.70;60.23;97267.56;4938905;28;20077;-77
2022/12/28 11:22:27;;;;;;;2.67;1.02;;;;;;;11.29;60.77;97267.19;4954916;28;20269;-76
2022/12/28 11:24:53;;;;;;;1.95;1.15;;;;;;;11.67;60.33;97262.06;4919154;28;20128;-75
2022/12/28 11:27:20;;;;;;;2.45;1.27;;;;;;;11.70;60.22;97257.13;4911763;28;20030;-76
2022/12/28 11:29:48;;;;;;;2.05;1.52;;;;;;;11.56;60.25;97255.97;4909066;28;20216;-76
2022/12/28 11:32:20;;;;;;;2.35;1.10;;;;;;;11.53;60.65;97252.06;4937893;28;20021;-76
2022/12/28 11:34:46;;;;;;;1.27;0.73;;;;;;;11.62;59.93;97247.19;4952880;28;20110;-76
2022/12/28 11:37:14;;;;;;;1.85;1.02;;;;;;;11.52;60.84;97244.50;4973387;28;20098;-77
2022/12/28 11:39:43;;;;;;;2.40;0.95;;;;;;;11.71;59.67;97243.06;4938709;28;20349;-76
2022/12/28 11:42:09;;;;;;;4.05;0.90;;;;;;;11.65;60.20;97228.41;4923259;28;20148;-76
2022/12/28 11:44:37;;;;;;;2.45;0.85;;;;;;;11.91;59.30;97232.03;4959501;28;20115;-77
2022/12/28 11:47:15;;;;;;;2.55;0.95;;;;;;;12.15;58.74;97235.03;4959449;28;20775;-77
2022/12/28 11:49:42;;;;;;;1.92;0.70;;;;;;;11.81;59.59;97232.69;4960010;28;20109;-76
2022/12/28 11:52:16;;;;;;;2.72;1.00;;;;;;;12.28;57.97;97230.41;4942630;28;20124;-76
2022/12/28 11:54:52;;;;;;;2.00;0.90;;;;;;;12.27;58.17;97220.97;4977688;28;20040;-77
2022/12/28 11:57:40;;;;;;;1.45;0.90;;;;;;;12.36;58.58;97211.66;4959106;28;20317;-76
2022/12/28 12:00:23;;;;;;;4.93;1.27;;;;;;;12.30;58.02;97217.88;4940289;28;20048;-76
2022/12/28 12:02:51;;;;;;;1.98;1.20;;;;;;;12.37;58.20;97215.81;4953104;28;20034;-78
2022/12/28 12:05:38;;;;;;;1.42;0.93;;;;;;;12.28;58.55;97212.91;4944555;28;20688;-76
2022/12/28 12:08:15;;;;;;;1.25;0.70;;;;;;;12.42;57.72;97207.22;4940461;28;20275;-76
2022/12/28 12:10:43;;;;;;;1.20;0.82;;;;;;;12.05;59.01;97198.44;4940587;28;20037;-76
2022/12/28 12:13:24;;;;;;;2.28;0.80;;;;;;;12.19;58.34;97190.94;4937491;28;20596;-77
2022/12/28 12:15:51;;;;;;;2.15;0.63;;;;;;;11.76;59.08;97183.09;4935728;28;20840;-76
2022/12/28 12:18:19;;;;;;;4.55;0.85;;;;;;;12.28;58.11;97171.13;4941789;28;20733;-77